NC20 weather

Canaan Air Base
New Bern, North Carolina, United States

Public forecast

Using degrees Fahrenheit for public forecast. Weather courtesy of forecast.io.

METAR (pilot weather report)

Closest report is Coastal Carolina Regional Airport, 5.9 nm (11.0 km) E. Retrieved 2019/04/25 22:54 UTC (23 minutes ago):

KEWN 252254Z 20008KT 10SM CLR 25/17 A2986 RMK AO2 SLP113 T02500167

TAF (pilot weather forecast)

Closest forecast is Coastal Carolina Regional Airport, 5.9 nm (11.0 km) E. Retrieved 2019/04/25 18:22 UTC (5 hours ago):

TAF KEWN 251720Z 2518/2618 21008G16KT P6SM SCT200 FM260900 20008KT P6SM BKN100 FM261400 20011G22KT 6SM SHRA SCT025 BKN045